Time;durP1;ratioP1;P1;durP2;ratioP2;P2;SDS_P1;SDS_P2;PMS_P1;PMS_P2;Temp;Humidity;BMP_temperature;BMP_pressure;BME280_temperature;BME280_humidity;BME280_pressure;Samples;Min_cycle;Max_cycle;Signal;HPM_P1;HPM_P2
2021/10/18 00:00:56;;;;;;;66.28;60.08;;;8.60;99.90;;;;;;4977588;28;20035;-75
2021/10/18 00:03:22;;;;;;;63.72;57.67;;;8.60;99.90;;;;;;4966938;28;20395;-76
2021/10/18 00:05:51;;;;;;;67.75;61.28;;;8.60;99.90;;;;;;4961381;28;20035;-75
2021/10/18 00:08:18;;;;;;;70.18;63.72;;;8.60;99.90;;;;;;4979205;28;20038;-75
2021/10/18 00:10:44;;;;;;;72.37;65.70;;;8.60;99.90;;;;;;4978308;28;20046;-74
2021/10/18 00:13:11;;;;;;;75.20;68.22;;;8.40;99.90;;;;;;4977643;28;20035;-76
2021/10/18 00:15:37;;;;;;;80.10;72.75;;;8.40;99.90;;;;;;4961227;28;20030;-72
2021/10/18 00:18:04;;;;;;;75.63;68.45;;;8.40;99.90;;;;;;4977082;28;20046;-75
2021/10/18 00:20:30;;;;;;;78.60;70.78;;;8.20;99.90;;;;;;4976130;28;20037;-75
2021/10/18 00:22:56;;;;;;;67.25;60.50;;;8.10;99.90;;;;;;4958682;28;20038;-75
2021/10/18 00:25:23;;;;;;;69.28;62.83;;;8.00;99.90;;;;;;4973131;28;20045;-75
2021/10/18 00:27:50;;;;;;;68.18;61.17;;;8.00;99.90;;;;;;4983982;28;20034;-75
2021/10/18 00:30:17;;;;;;;68.45;61.42;;;7.90;99.90;;;;;;4974177;28;20042;-75
2021/10/18 00:32:43;;;;;;;69.32;62.50;;;7.80;99.90;;;;;;4994429;28;20054;-75
2021/10/18 00:35:10;;;;;;;65.05;58.60;;;7.70;99.90;;;;;;4993990;28;20046;-75
2021/10/18 00:37:38;;;;;;;61.90;54.88;;;7.60;99.90;;;;;;4995153;28;20041;-74
2021/10/18 00:40:06;;;;;;;60.25;54.88;;;7.50;99.90;;;;;;5009655;28;20034;-75
2021/10/18 00:42:32;;;;;;;61.17;55.42;;;7.40;99.90;;;;;;4995516;28;20427;-74
2021/10/18 00:44:59;;;;;;;64.65;58.05;;;7.30;99.90;;;;;;5013627;28;20037;-75
2021/10/18 00:47:25;;;;;;;63.28;57.70;;;7.30;99.90;;;;;;5000396;28;20038;-76
2021/10/18 00:49:51;;;;;;;62.30;56.70;;;7.30;99.90;;;;;;4997438;28;20037;-76
2021/10/18 00:52:21;;;;;;;68.72;62.38;;;7.20;99.90;;;;;;4997466;28;20045;-74
2021/10/18 00:54:49;;;;;;;66.05;59.90;;;7.10;99.90;;;;;;5015261;28;20150;-75
2021/10/18 00:57:16;;;;;;;66.68;60.72;;;7.00;99.90;;;;;;5012131;28;20054;-75
2021/10/18 00:59:44;;;;;;;68.60;61.85;;;6.90;99.90;;;;;;5003452;28;20033;-75
2021/10/18 01:02:11;;;;;;;71.95;65.20;;;6.80;99.90;;;;;;5007142;28;20045;-75
2021/10/18 01:04:38;;;;;;;75.20;68.18;;;6.80;99.90;;;;;;5007254;28;20037;-75
2021/10/18 01:07:05;;;;;;;80.95;73.20;;;6.80;99.90;;;;;;5002240;28;20459;-74
2021/10/18 01:09:31;;;;;;;81.68;73.13;;;6.80;99.90;;;;;;4994623;28;20571;-75
2021/10/18 01:12:01;;;;;;;77.80;70.35;;;6.70;99.90;;;;;;4993528;28;20038;-74
2021/10/18 01:14:27;;;;;;;83.20;75.00;;;6.50;99.90;;;;;;4993368;28;20422;-74
2021/10/18 01:16:54;;;;;;;89.28;80.75;;;6.50;99.90;;;;;;4993662;28;20041;-74
2021/10/18 01:19:23;;;;;;;78.05;69.78;;;6.40;99.90;;;;;;4993181;28;20041;-75
2021/10/18 01:22:01;;;;;;;71.97;65.40;;;6.40;99.90;;;;;;4994262;28;20391;-74
2021/10/18 01:24:32;;;;;;;70.57;64.15;;;6.30;99.90;;;;;;5008503;28;20037;-75
2021/10/18 01:26:59;;;;;;;72.20;65.18;;;6.20;99.90;;;;;;4998223;28;20035;-75
2021/10/18 01:29:32;;;;;;;71.70;64.28;;;6.20;99.90;;;;;;4992296;28;20049;-74
2021/10/18 01:31:58;;;;;;;69.85;63.05;;;6.10;99.90;;;;;;4993444;28;20034;-74
2021/10/18 01:34:26;;;;;;;67.38;60.97;;;6.00;99.90;;;;;;4993408;28;20053;-74
2021/10/18 01:36:55;;;;;;;67.25;61.05;;;6.00;99.90;;;;;;4999185;28;20378;-74
2021/10/18 01:39:22;;;;;;;70.45;63.88;;;5.90;99.90;;;;;;5001900;28;20039;-75
2021/10/18 01:41:48;;;;;;;67.43;61.42;;;5.90;99.90;;;;;;4993610;28;20038;-75
2021/10/18 01:44:15;;;;;;;69.18;62.65;;;5.90;99.90;;;;;;4997684;28;20386;-75
2021/10/18 01:46:42;;;;;;;70.47;63.63;;;5.80;99.90;;;;;;5006674;28;20045;-74
2021/10/18 01:49:09;;;;;;;69.60;63.20;;;5.80;99.90;;;;;;4994592;28;20387;-74
2021/10/18 01:51:36;;;;;;;72.30;64.95;;;5.80;99.90;;;;;;5008849;28;20022;-74
2021/10/18 01:54:02;;;;;;;69.30;62.53;;;5.80;99.90;;;;;;4991481;28;20042;-74
2021/10/18 01:56:31;;;;;;;71.78;64.72;;;5.80;99.90;;;;;;5009426;28;20049;-74
2021/10/18 01:58:58;;;;;;;76.20;68.65;;;5.80;99.90;;;;;;4998137;28;20490;-75
2021/10/18 02:01:24;;;;;;;81.20;71.97;;;5.90;99.90;;;;;;4998247;28;20061;-74
2021/10/18 02:03:50;;;;;;;75.22;67.70;;;6.00;99.90;;;;;;4991794;28;20047;-75
2021/10/18 02:06:16;;;;;;;81.07;72.88;;;6.00;99.90;;;;;;4999310;28;20029;-75
2021/10/18 02:08:42;;;;;;;80.57;72.22;;;6.10;99.90;;;;;;5004579;28;20467;-74
2021/10/18 02:11:10;;;;;;;67.57;61.47;;;6.10;99.90;;;;;;5007442;28;20046;-74
2021/10/18 02:13:36;;;;;;;71.00;64.75;;;6.10;99.90;;;;;;5004247;28;20061;-74
2021/10/18 02:16:03;;;;;;;72.60;65.25;;;6.20;99.90;;;;;;5000281;28;20030;-74
2021/10/18 02:18:29;;;;;;;71.47;64.88;;;6.20;99.90;;;;;;4992732;28;20044;-74
2021/10/18 02:21:01;;;;;;;72.45;65.55;;;6.20;99.90;;;;;;4998013;28;20038;-74
2021/10/18 02:23:29;;;;;;;73.13;65.80;;;6.30;99.90;;;;;;4999371;28;20057;-74
2021/10/18 02:25:55;;;;;;;73.70;64.30;;;6.30;99.90;;;;;;4992849;28;20478;-75
2021/10/18 02:28:22;;;;;;;69.10;62.63;;;6.40;99.90;;;;;;4992760;28;20035;-75
2021/10/18 02:30:49;;;;;;;68.90;61.17;;;6.40;99.90;;;;;;4978033;28;20055;-73
2021/10/18 02:33:17;;;;;;;64.93;58.70;;;6.50;99.90;;;;;;4954559;28;20396;-75
2021/10/18 02:35:43;;;;;;;66.55;60.30;;;6.50;99.90;;;;;;4973022;28;20031;-74
2021/10/18 02:38:10;;;;;;;64.32;58.00;;;6.50;99.90;;;;;;4975743;28;20034;-75
2021/10/18 02:40:36;;;;;;;63.17;57.40;;;6.50;99.90;;;;;;4977840;28;20050;-74
2021/10/18 02:43:03;;;;;;;64.60;58.60;;;6.50;99.90;;;;;;4980054;28;20038;-75
2021/10/18 02:45:29;;;;;;;66.60;59.85;;;6.60;99.90;;;;;;4976207;28;20034;-75
2021/10/18 02:47:57;;;;;;;65.07;59.38;;;6.60;99.90;;;;;;4976754;28;20049;-74
2021/10/18 02:50:24;;;;;;;64.65;58.80;;;6.50;99.90;;;;;;4976164;28;20039;-75
2021/10/18 02:52:51;;;;;;;61.50;55.60;;;6.50;99.90;;;;;;4959689;28;20047;-75
2021/10/18 02:55:17;;;;;;;63.60;57.38;;;6.50;99.90;;;;;;4976646;28;20045;-74
2021/10/18 02:57:43;;;;;;;65.70;59.13;;;6.50;99.90;;;;;;4976853;28;20027;-75
2021/10/18 03:00:10;;;;;;;62.78;56.70;;;6.50;99.90;;;;;;4977400;28;20495;-74
2021/10/18 03:02:37;;;;;;;63.05;57.30;;;6.50;99.90;;;;;;4976039;28;20483;-75
2021/10/18 03:05:04;;;;;;;65.45;59.53;;;6.60;99.90;;;;;;4959915;28;20050;-75
2021/10/18 03:07:30;;;;;;;66.07;59.65;;;6.60;99.90;;;;;;4987910;28;20395;-74
2021/10/18 03:09:56;;;;;;;65.10;59.17;;;6.70;99.90;;;;;;4987305;28;20045;-74
2021/10/18 03:12:23;;;;;;;64.88;58.67;;;6.70;99.90;;;;;;4978897;28;20038;-75
2021/10/18 03:14:49;;;;;;;86.50;78.43;;;6.60;99.90;;;;;;4979208;28;20038;-74
2021/10/18 03:17:15;;;;;;;75.25;68.93;;;6.60;99.90;;;;;;4978367;28;20030;-74
2021/10/18 03:19:41;;;;;;;69.88;63.80;;;6.60;99.90;;;;;;4992128;28;20035;-75
2021/10/18 03:22:08;;;;;;;71.82;65.47;;;6.60;99.90;;;;;;4994645;28;20038;-74
2021/10/18 03:24:37;;;;;;;96.47;87.68;;;6.60;99.90;;;;;;4972805;28;20050;-73
2021/10/18 03:27:05;;;;;;;70.45;63.80;;;6.60;99.90;;;;;;4980986;28;20037;-74
2021/10/18 03:29:32;;;;;;;67.85;61.60;;;6.70;99.90;;;;;;4969106;28;20056;-74
2021/10/18 03:31:59;;;;;;;68.25;61.90;;;6.80;99.90;;;;;;4986448;28;20046;-74
2021/10/18 03:34:25;;;;;;;67.63;61.30;;;6.80;99.90;;;;;;4980349;28;20038;-75
2021/10/18 03:36:52;;;;;;;67.93;61.60;;;6.90;99.90;;;;;;4995813;28;20053;-75
2021/10/18 03:39:18;;;;;;;62.00;56.42;;;6.90;99.90;;;;;;4974873;28;20368;-75
2021/10/18 03:41:44;;;;;;;63.65;57.88;;;7.00;99.90;;;;;;4982965;28;20058;-75
2021/10/18 03:44:12;;;;;;;62.65;56.97;;;7.00;99.90;;;;;;4987140;28;20034;-74
2021/10/18 03:46:39;;;;;;;62.33;56.60;;;7.00;99.90;;;;;;4964845;28;20042;-74
2021/10/18 03:49:07;;;;;;;63.47;57.45;;;7.00;99.90;;;;;;4975221;28;20034;-74
2021/10/18 03:51:33;;;;;;;65.25;59.08;;;7.10;99.90;;;;;;4977085;28;20026;-75
2021/10/18 03:54:01;;;;;;;66.60;60.47;;;7.10;99.90;;;;;;4975152;28;20047;-74
2021/10/18 03:56:28;;;;;;;65.40;58.95;;;7.20;99.90;;;;;;4985888;28;20030;-75
2021/10/18 03:58:54;;;;;;;66.63;60.10;;;7.20;99.90;;;;;;4975223;28;20138;-75
2021/10/18 04:01:20;;;;;;;64.30;58.38;;;7.20;99.90;;;;;;4974103;28;20395;-75
2021/10/18 04:03:46;;;;;;;64.63;58.38;;;7.30;99.90;;;;;;4987191;28;20057;-75
2021/10/18 04:06:13;;;;;;;64.35;58.38;;;7.30;99.90;;;;;;4968483;28;20086;-75
2021/10/18 04:08:40;;;;;;;67.13;60.60;;;7.30;99.90;;;;;;4981210;28;20039;-75
2021/10/18 04:11:06;;;;;;;66.00;59.80;;;7.30;99.90;;;;;;4982016;28;20050;-75
2021/10/18 04:13:32;;;;;;;77.97;71.28;;;7.30;99.90;;;;;;4974343;28;20030;-75
2021/10/18 04:15:58;;;;;;;77.65;70.22;;;7.40;99.90;;;;;;4974625;28;20034;-75
2021/10/18 04:18:25;;;;;;;72.43;65.85;;;7.50;99.90;;;;;;4974373;28;20114;-75
2021/10/18 04:20:52;;;;;;;76.70;69.50;;;7.50;99.90;;;;;;4976275;28;20042;-75
2021/10/18 04:23:18;;;;;;;76.65;69.20;;;7.50;99.90;;;;;;4991028;28;20376;-75
2021/10/18 04:25:44;;;;;;;79.05;71.40;;;7.50;99.90;;;;;;4975247;28;20043;-75
2021/10/18 04:28:10;;;;;;;78.80;71.35;;;7.60;99.90;;;;;;4975064;28;20042;-74
2021/10/18 04:30:37;;;;;;;72.50;65.80;;;7.60;99.90;;;;;;4974532;28;20057;-75
2021/10/18 04:33:03;;;;;;;70.28;63.55;;;7.70;99.90;;;;;;4991491;28;20042;-75
2021/10/18 04:35:29;;;;;;;86.55;78.07;;;7.80;99.90;;;;;;4992397;28;20038;-75
2021/10/18 04:37:56;;;;;;;90.80;81.63;;;7.80;99.90;;;;;;4989607;28;20467;-75
2021/10/18 04:40:22;;;;;;;88.53;80.03;;;7.80;99.90;;;;;;4973635;28;20043;-76
2021/10/18 04:42:48;;;;;;;91.47;82.47;;;7.90;99.90;;;;;;4985047;28;20090;-75
2021/10/18 04:45:15;;;;;;;86.03;78.20;;;7.90;99.90;;;;;;4990964;28;20043;-75
2021/10/18 04:47:43;;;;;;;81.78;74.18;;;7.90;99.90;;;;;;4976330;28;20027;-75
2021/10/18 04:50:10;;;;;;;81.47;74.03;;;7.90;99.90;;;;;;4974964;28;20038;-75
2021/10/18 04:52:36;;;;;;;81.32;73.43;;;8.00;99.90;;;;;;4973731;28;20039;-74
2021/10/18 04:55:03;;;;;;;83.35;75.80;;;8.00;99.90;;;;;;4975598;28;20485;-78
2021/10/18 04:57:29;;;;;;;82.95;74.88;;;8.10;99.90;;;;;;4975657;28;20029;-78
2021/10/18 04:59:55;;;;;;;83.28;75.35;;;8.10;99.90;;;;;;4975060;28;20054;-78
2021/10/18 05:02:22;;;;;;;85.13;77.35;;;8.10;99.90;;;;;;4975095;28;20038;-78
2021/10/18 05:04:48;;;;;;;84.88;76.47;;;8.20;99.90;;;;;;4975337;28;20344;-77
2021/10/18 05:07:14;;;;;;;83.82;76.00;;;8.20;99.90;;;;;;4975668;28;20061;-78
2021/10/18 05:09:40;;;;;;;86.15;78.43;;;8.20;99.90;;;;;;4975608;28;20034;-78
2021/10/18 05:12:07;;;;;;;98.85;89.88;;;8.10;99.90;;;;;;4972275;28;20090;-78
2021/10/18 05:14:33;;;;;;;87.22;79.13;;;8.20;99.90;;;;;;4975459;28;20039;-78
2021/10/18 05:16:59;;;;;;;83.38;76.15;;;8.20;99.90;;;;;;4976001;28;20039;-76
2021/10/18 05:19:25;;;;;;;90.22;81.80;;;8.20;99.90;;;;;;4962306;28;20038;-77
2021/10/18 05:21:51;;;;;;;86.88;78.25;;;8.20;99.90;;;;;;4973521;28;20042;-77
2021/10/18 05:24:18;;;;;;;93.10;84.40;;;8.20;99.90;;;;;;4975463;28;20039;-77
2021/10/18 05:26:44;;;;;;;92.03;82.65;;;8.20;99.90;;;;;;4976687;28;20038;-77
2021/10/18 05:29:10;;;;;;;100.75;91.00;;;8.30;99.90;;;;;;4990232;28;20031;-77
2021/10/18 05:31:36;;;;;;;92.50;83.75;;;8.30;99.90;;;;;;4974640;28;20055;-77
2021/10/18 05:34:03;;;;;;;93.72;84.05;;;8.30;99.90;;;;;;4973538;28;20035;-77
2021/10/18 05:36:29;;;;;;;96.93;87.75;;;8.30;99.90;;;;;;4980590;28;20041;-77
2021/10/18 05:38:55;;;;;;;94.00;84.00;;;8.30;99.90;;;;;;4976821;28;20051;-77
2021/10/18 05:41:21;;;;;;;94.47;85.10;;;8.30;99.90;;;;;;4986466;28;20487;-77
2021/10/18 05:43:48;;;;;;;96.38;87.05;;;8.30;99.90;;;;;;4975798;28;20047;-77
2021/10/18 05:46:20;;;;;;;93.88;84.40;;;8.40;99.90;;;;;;4978331;28;20035;-77
2021/10/18 05:48:46;;;;;;;96.78;86.93;;;8.40;99.90;;;;;;4986863;28;20038;-77
2021/10/18 05:51:12;;;;;;;91.60;83.10;;;8.40;99.90;;;;;;4972252;28;20050;-77
2021/10/18 05:53:38;;;;;;;94.25;84.82;;;8.40;99.90;;;;;;4984293;28;20222;-78
2021/10/18 05:56:05;;;;;;;95.57;86.28;;;8.40;99.90;;;;;;4976894;28;20503;-78
2021/10/18 05:58:31;;;;;;;93.40;84.82;;;8.40;99.90;;;;;;4955649;28;20047;-77
2021/10/18 06:00:57;;;;;;;92.28;83.38;;;8.40;99.90;;;;;;4948583;28;20038;-78
2021/10/18 06:03:23;;;;;;;92.72;83.40;;;8.40;99.90;;;;;;4973636;28;20030;-77
2021/10/18 06:05:52;;;;;;;80.22;72.55;;;8.50;99.90;;;;;;4973887;28;20460;-79
2021/10/18 06:08:18;;;;;;;79.78;72.28;;;8.50;99.90;;;;;;4978771;28;20049;-78
2021/10/18 06:10:45;;;;;;;78.38;70.85;;;8.50;99.90;;;;;;4985021;28;20077;-78
2021/10/18 06:13:12;;;;;;;73.82;67.35;;;8.50;99.90;;;;;;4989552;28;20026;-78
2021/10/18 06:15:38;;;;;;;74.18;67.43;;;8.50;99.90;;;;;;4987707;28;20045;-78
2021/10/18 06:18:14;;;;;;;72.75;66.03;;;8.50;99.90;;;;;;4994314;28;20049;-78
2021/10/18 06:20:48;;;;;;;75.63;68.05;;;8.50;99.90;;;;;;4985024;28;20029;-79
2021/10/18 06:23:15;;;;;;;71.95;65.22;;;8.50;99.90;;;;;;5007004;28;20040;-78
2021/10/18 06:25:42;;;;;;;80.00;72.43;;;8.40;99.90;;;;;;4978974;28;20031;-78
2021/10/18 06:28:08;;;;;;;80.18;72.25;;;8.40;99.90;;;;;;4978921;28;20498;-77
2021/10/18 06:30:35;;;;;;;80.45;72.38;;;8.50;99.90;;;;;;4983761;28;20043;-77
2021/10/18 06:33:03;;;;;;;79.28;71.25;;;8.50;99.90;;;;;;4984695;28;20031;-78
2021/10/18 06:35:35;;;;;;;78.35;71.18;;;8.50;99.90;;;;;;4984859;28;20030;-77
2021/10/18 06:38:02;;;;;;;;;;;8.60;99.90;;;;;;4987516;28;20035;-77
2021/10/18 06:40:28;;;;;;;78.50;71.00;;;8.60;99.90;;;;;;4985383;28;19914;-78
2021/10/18 06:42:54;;;;;;;77.72;70.22;;;8.60;99.90;;;;;;4978925;28;20463;-77
2021/10/18 06:45:21;;;;;;;73.18;66.55;;;8.60;99.90;;;;;;4978264;28;20034;-77
2021/10/18 06:47:47;;;;;;;74.32;67.43;;;8.70;99.90;;;;;;4982804;28;20046;-78
2021/10/18 06:50:14;;;;;;;68.65;61.70;;;8.70;99.90;;;;;;5000859;28;20460;-78
2021/10/18 06:52:42;;;;;;;64.70;58.97;;;8.70;99.90;;;;;;5004072;28;20037;-77
2021/10/18 06:55:11;;;;;;;103.15;93.28;;;8.70;99.90;;;;;;5003384;28;20039;-78
2021/10/18 06:57:38;;;;;;;64.70;58.15;;;8.80;99.90;;;;;;5002132;28;20037;-78
2021/10/18 07:00:06;;;;;;;62.78;56.30;;;8.80;99.90;;;;;;5002040;28;20045;-76
2021/10/18 07:02:32;;;;;;;62.17;56.30;;;8.80;99.90;;;;;;4988122;28;20030;-77
2021/10/18 07:04:59;;;;;;;57.25;52.20;;;8.90;99.90;;;;;;4969875;28;20038;-78
2021/10/18 07:07:28;;;;;;;62.13;56.25;;;8.90;99.90;;;;;;4980771;28;20035;-78
2021/10/18 07:09:59;;;;;;;56.53;50.90;;;8.90;99.90;;;;;;4991019;28;20379;-78
2021/10/18 07:12:30;;;;;;;57.88;52.63;;;9.00;99.90;;;;;;4977474;28;20057;-76
2021/10/18 07:14:57;;;;;;;56.93;50.93;;;9.00;99.90;;;;;;4977611;28;20042;-77
2021/10/18 07:17:24;;;;;;;52.03;47.22;;;9.10;99.90;;;;;;4986685;28;20039;-77
2021/10/18 07:19:51;;;;;;;52.22;47.28;;;9.10;99.90;;;;;;4985028;28;20031;-77
2021/10/18 07:22:18;;;;;;;50.38;45.95;;;9.10;99.90;;;;;;4977400;28;20038;-76
2021/10/18 07:24:45;;;;;;;47.15;42.70;;;9.10;99.90;;;;;;4964094;28;20043;-80
2021/10/18 07:27:11;;;;;;;44.90;40.90;;;9.10;99.90;;;;;;4986559;28;20372;-79
2021/10/18 07:29:38;;;;;;;48.22;43.60;;;9.10;99.90;;;;;;4995424;28;20050;-78
2021/10/18 07:32:05;;;;;;;46.33;42.25;;;9.20;99.90;;;;;;4977528;28;20031;-80
2021/10/18 07:34:32;;;;;;;46.05;40.90;;;9.20;99.90;;;;;;4984390;28;20045;-78
2021/10/18 07:36:58;;;;;;;48.17;43.15;;;9.30;99.90;;;;;;4985792;28;20050;-78
2021/10/18 07:39:26;;;;;;;44.28;40.05;;;9.40;99.90;;;;;;4985115;28;20041;-78
2021/10/18 07:41:55;;;;;;;45.22;40.80;;;9.50;99.90;;;;;;4979738;28;20039;-78
2021/10/18 07:44:24;;;;;;;44.72;40.05;;;9.60;99.90;;;;;;5000484;28;20033;-78
2021/10/18 07:46:55;;;;;;;39.75;36.22;;;9.70;99.90;;;;;;4987809;28;20035;-78
2021/10/18 07:49:22;;;;;;;;;;;9.60;99.90;;;;;;4993967;28;20351;-79
2021/10/18 07:51:50;;;;;;;37.15;33.90;;;9.70;99.90;;;;;;4977356;28;19917;-79
2021/10/18 07:54:18;;;;;;;38.83;35.40;;;9.70;99.90;;;;;;4978830;28;20038;-79
2021/10/18 07:56:47;;;;;;;37.70;34.67;;;9.70;99.90;;;;;;4998904;28;20041;-79
2021/10/18 07:59:13;;;;;;;37.65;33.95;;;9.70;99.90;;;;;;5008391;28;20029;-79
2021/10/18 08:01:39;;;;;;;38.08;34.63;;;9.80;99.90;;;;;;5007612;28;20026;-79
2021/10/18 08:04:07;;;;;;;36.70;33.58;;;9.80;99.90;;;;;;4988728;28;20496;-85
2021/10/18 08:06:34;;;;;;;39.45;33.65;;;9.80;99.90;;;;;;4984812;28;20035;-79
2021/10/18 08:09:01;;;;;;;36.72;32.72;;;10.00;99.90;;;;;;5008456;28;20030;-79
2021/10/18 08:11:27;;;;;;;35.42;32.20;;;10.10;99.90;;;;;;4988670;28;20046;-79
2021/10/18 08:13:54;;;;;;;34.22;31.20;;;10.20;99.90;;;;;;4977641;28;20042;-79
2021/10/18 08:16:20;;;;;;;47.78;43.10;;;10.20;99.90;;;;;;4987548;28;20037;-80
2021/10/18 08:18:47;;;;;;;36.20;32.17;;;10.20;99.90;;;;;;4963080;28;20046;-80
2021/10/18 08:21:13;;;;;;;36.67;32.78;;;10.40;99.90;;;;;;4983038;28;20034;-79
2021/10/18 08:23:40;;;;;;;102.80;90.38;;;10.50;99.90;;;;;;4994455;28;20041;-79
2021/10/18 08:26:06;;;;;;;51.17;45.65;;;10.60;99.90;;;;;;4991756;28;20035;-80
2021/10/18 08:28:33;;;;;;;46.88;42.38;;;10.60;99.90;;;;;;4990112;28;20444;-79
2021/10/18 08:30:59;;;;;;;35.20;31.90;;;10.60;99.90;;;;;;5002168;28;20054;-79
2021/10/18 08:33:26;;;;;;;36.10;31.08;;;10.70;99.90;;;;;;5005395;28;20371;-80
2021/10/18 08:35:52;;;;;;;33.30;30.30;;;11.00;99.90;;;;;;5012799;28;20065;-81
2021/10/18 08:46:07;;;;;;;30.08;27.30;;;10.50;99.60;;;;;;5004917;28;20030;-81
2021/10/18 08:48:37;;;;;;;29.95;27.35;;;10.30;99.90;;;;;;4996932;28;20037;-83
2021/10/18 08:51:03;;;;;;;31.73;28.48;;;10.20;99.90;;;;;;4996502;28;20030;-80
2021/10/18 08:53:30;;;;;;;31.73;28.70;;;10.30;99.90;;;;;;5014663;28;20398;-83
2021/10/18 08:55:57;;;;;;;31.70;28.65;;;10.40;99.90;;;;;;4996128;28;20042;-83
2021/10/18 08:58:23;;;;;;;32.28;29.00;;;10.40;99.90;;;;;;4996497;28;20030;-79
2021/10/18 09:00:51;;;;;;;34.15;30.42;;;10.50;99.40;;;;;;5012906;28;20037;-83
2021/10/18 09:03:32;;;;;;;32.33;29.30;;;10.60;99.20;;;;;;5018028;28;20045;-80
2021/10/18 09:06:27;;;;;;;30.52;27.65;;;10.80;99.80;;;;;;4995290;28;20057;-79
2021/10/18 09:08:56;;;;;;;33.05;29.58;;;11.20;97.80;;;;;;5002799;28;20038;-80
2021/10/18 09:11:26;;;;;;;29.25;26.73;;;11.50;96.40;;;;;;4993880;28;20037;-80
2021/10/18 09:13:52;;;;;;;26.98;24.65;;;11.70;95.00;;;;;;4995034;28;20382;-80
2021/10/18 09:16:30;;;;;;;29.55;26.55;;;11.60;95.00;;;;;;5008521;28;20371;-81
2021/10/18 09:18:58;;;;;;;30.55;27.50;;;11.70;94.80;;;;;;5019168;28;20402;-82
2021/10/18 09:21:33;;;;;;;28.05;25.17;;;11.70;93.60;;;;;;5007117;28;20037;-80
2021/10/18 09:24:01;;;;;;;30.15;26.90;;;11.50;94.50;;;;;;5002418;28;20043;-79
2021/10/18 09:26:28;;;;;;;28.38;25.02;;;11.30;94.40;;;;;;4998499;28;20034;-80
2021/10/18 09:29:01;;;;;;;25.95;23.90;;;11.40;95.10;;;;;;4996763;28;20395;-83
2021/10/18 09:31:27;;;;;;;31.80;25.73;;;11.20;94.00;;;;;;4978011;28;20051;-81
2021/10/18 09:34:05;;;;;;;29.63;26.48;;;10.90;94.90;;;;;;4979167;28;20034;-81
2021/10/18 09:36:33;;;;;;;29.52;26.67;;;10.80;95.70;;;;;;4997266;28;20039;-85
2021/10/18 09:39:10;;;;;;;29.75;27.25;;;11.00;96.40;;;;;;4959615;28;20046;-81
2021/10/18 09:41:37;;;;;;;27.92;25.20;;;11.30;95.90;;;;;;4943807;28;20049;-76
2021/10/18 09:44:15;;;;;;;26.27;23.77;;;11.50;94.60;;;;;;4978671;28;20046;-86
2021/10/18 09:47:03;;;;;;;27.05;24.42;;;11.50;94.10;;;;;;4967882;28;20042;-83
2021/10/18 10:52:40;;;;;;;23.17;21.02;;;11.90;89.10;;;;;;4979851;28;20035;-80
2021/10/18 10:55:23;;;;;;;26.10;21.50;;;12.10;89.40;;;;;;4981788;28;20039;-86
2021/10/18 10:57:54;;;;;;;24.52;22.00;;;12.20;88.40;;;;;;4986992;28;20054;-89
2021/10/18 11:00:30;;;;;;;24.88;22.55;;;12.20;87.40;;;;;;4971460;28;20387;-83
2021/10/18 11:03:23;;;;;;;24.63;22.30;;;12.20;88.20;;;;;;4980261;28;20046;-84
2021/10/18 11:06:10;;;;;;;24.70;22.00;;;12.40;89.10;;;;;;4960261;28;20480;-81
2021/10/18 11:08:40;;;;;;;25.88;23.58;;;12.70;85.90;;;;;;4977486;28;20045;-83
2021/10/18 11:11:35;;;;;;;22.55;20.60;;;12.70;85.60;;;;;;4976679;28;20372;-85
2021/10/18 11:14:02;;;;;;;23.65;20.88;;;12.80;85.20;;;;;;4977760;28;20043;-80
2021/10/18 11:16:30;;;;;;;23.35;20.92;;;13.30;84.40;;;;;;4992053;28;20490;-85
2021/10/18 11:19:02;;;;;;;24.88;21.30;;;13.60;81.70;;;;;;4972873;28;20039;-84
2021/10/18 11:21:33;;;;;;;23.42;21.23;;;13.50;82.10;;;;;;4970579;28;20041;-82
2021/10/18 11:24:12;;;;;;;20.75;18.58;;;13.70;81.10;;;;;;4999820;28;20043;-85
2021/10/18 11:26:40;;;;;;;21.05;19.20;;;13.60;80.30;;;;;;5007090;28;20045;-87
2021/10/18 11:29:12;;;;;;;19.98;17.92;;;13.70;79.40;;;;;;4967957;28;20116;-84
2021/10/18 11:31:41;;;;;;;19.83;17.65;;;13.80;80.10;;;;;;4995012;28;20046;-83
2021/10/18 11:34:10;;;;;;;19.38;17.73;;;13.90;78.50;;;;;;4963526;28;20047;-84
2021/10/18 11:36:42;;;;;;;20.15;18.45;;;13.50;79.30;;;;;;4986587;28;20039;-82
2021/10/18 11:39:14;;;;;;;24.75;18.40;;;13.70;79.20;;;;;;4949270;28;20050;-83
2021/10/18 11:41:59;;;;;;;22.02;19.95;;;13.80;79.80;;;;;;4975559;28;20046;-88
2021/10/18 11:44:47;;;;;;;18.98;17.42;;;13.70;77.90;;;;;;4976721;28;20046;-83
2021/10/18 11:47:33;;;;;;;19.40;17.10;;;13.60;79.40;;;;;;4984916;28;20018;-87
2021/10/18 11:50:02;;;;;;;21.02;19.25;;;13.60;77.70;;;;;;4976962;28;20031;-84
2021/10/18 11:52:32;;;;;;;20.05;18.02;;;13.20;78.90;;;;;;4989292;28;20102;-85
2021/10/18 11:55:27;;;;;;;18.25;15.55;;;13.50;80.00;;;;;;4990688;28;20110;-85
2021/10/18 11:57:56;;;;;;;19.95;18.15;;;13.70;77.50;;;;;;4987122;28;20033;-85
2021/10/18 12:00:42;;;;;;;35.95;26.65;;;13.60;78.60;;;;;;4985203;28;20031;-82
2021/10/18 12:03:10;;;;;;;22.10;19.17;;;13.70;78.10;;;;;;4984226;28;20031;-82
2021/10/18 12:05:44;;;;;;;20.55;18.65;;;13.60;78.50;;;;;;4979418;28;20027;-82
2021/10/18 12:08:19;;;;;;;20.70;18.05;;;13.50;78.70;;;;;;4966140;28;20039;-89
2021/10/18 12:10:50;;;;;;;22.60;20.55;;;13.40;78.20;;;;;;4960870;28;20042;-82
2021/10/18 12:13:21;;;;;;;20.20;18.10;;;13.50;78.90;;;;;;4983742;28;20026;-82
2021/10/18 12:16:02;;;;;;;17.75;16.25;;;13.70;78.30;;;;;;4977669;28;20038;-84
2021/10/18 12:18:52;;;;;;;20.90;19.02;;;13.70;77.50;;;;;;4973586;28;20455;-80
2021/10/18 12:21:36;;;;;;;22.70;17.88;;;13.60;78.30;;;;;;4982537;28;20029;-80
2021/10/18 12:24:05;;;;;;;15.63;14.18;;;13.70;78.10;;;;;;4975621;28;20031;-81
2021/10/18 12:26:39;;;;;;;16.90;15.23;;;13.60;77.80;;;;;;4974312;28;20250;-86
2021/10/18 12:29:06;;;;;;;17.42;16.02;;;13.20;77.70;;;;;;4975932;28;20026;-85
2021/10/18 12:31:42;;;;;;;17.38;15.88;;;13.20;78.60;;;;;;5010962;28;20049;-86
2021/10/18 12:34:29;;;;;;;17.38;15.98;;;13.30;78.60;;;;;;5007332;28;20364;-83
2021/10/18 12:37:05;;;;;;;17.33;15.82;;;13.50;79.00;;;;;;5027486;28;20455;-83
2021/10/18 12:39:53;;;;;;;18.17;16.58;;;13.60;78.70;;;;;;5016757;28;20493;-84
2021/10/18 12:42:29;;;;;;;17.10;15.43;;;13.50;77.70;;;;;;5016897;28;20049;-83
2021/10/18 12:45:06;;;;;;;16.25;14.73;;;13.50;79.10;;;;;;5012171;28;20026;-80
2021/10/18 12:47:36;;;;;;;16.70;14.85;;;14.00;77.60;;;;;;5004642;28;20497;-91
2021/10/18 12:50:12;;;;;;;17.25;15.82;;;13.80;76.80;;;;;;4994958;28;20033;-86
2021/10/18 12:52:41;;;;;;;18.77;14.90;;;13.60;77.70;;;;;;4998091;28;20034;-84
2021/10/18 12:55:17;;;;;;;17.65;15.68;;;13.80;77.80;;;;;;5002435;28;20037;-82
2021/10/18 12:57:53;;;;;;;20.48;16.15;;;14.10;77.00;;;;;;5005805;28;20371;-82
2021/10/18 13:00:27;;;;;;;21.00;15.60;;;14.10;76.20;;;;;;4997940;28;20030;-82
2021/10/18 13:03:09;;;;;;;16.65;15.00;;;14.10;76.10;;;;;;4993675;28;20367;-84
2021/10/18 13:05:39;;;;;;;15.95;14.25;;;14.20;75.00;;;;;;4995678;28;20034;-83
2021/10/18 13:08:08;;;;;;;15.18;13.88;;;14.10;75.40;;;;;;5009084;28;20022;-82
2021/10/18 13:10:41;;;;;;;16.95;15.43;;;14.10;76.30;;;;;;4994816;28;20034;-81
2021/10/18 13:13:10;;;;;;;129.63;113.43;;;14.30;76.30;;;;;;4999947;28;20026;-85
2021/10/18 13:15:37;;;;;;;22.98;20.70;;;14.40;74.80;;;;;;5014710;28;20034;-87
2021/10/18 13:18:06;;;;;;;19.50;14.82;;;14.10;74.70;;;;;;5011855;28;20038;-89
2021/10/18 13:20:32;;;;;;;14.80;13.45;;;14.00;75.30;;;;;;4995917;28;20023;-85
2021/10/18 13:23:00;;;;;;;16.17;14.68;;;13.80;75.40;;;;;;4995495;28;20038;-88
2021/10/18 13:25:30;;;;;;;34.30;31.20;;;13.80;75.90;;;;;;4996490;28;20042;-83
2021/10/18 13:27:57;;;;;;;110.15;98.95;;;13.80;76.20;;;;;;5011428;28;20030;-85
2021/10/18 13:30:25;;;;;;;19.52;17.60;;;14.00;75.70;;;;;;5010407;28;20044;-87
2021/10/18 13:32:55;;;;;;;144.63;129.95;;;13.80;76.20;;;;;;5016918;28;20462;-87
2021/10/18 13:35:22;;;;;;;77.28;63.90;;;13.90;76.20;;;;;;5013237;28;20022;-83
2021/10/18 13:37:50;;;;;;;20.42;16.58;;;13.90;76.80;;;;;;4995972;28;20029;-83
2021/10/18 13:40:19;;;;;;;55.80;50.45;;;14.20;75.50;;;;;;5012718;28;20042;-83
2021/10/18 13:42:46;;;;;;;23.70;21.42;;;14.10;75.10;;;;;;5014023;28;20041;-83
2021/10/18 13:45:16;;;;;;;77.53;69.63;;;14.10;75.30;;;;;;5000447;28;20034;-84
2021/10/18 13:47:42;;;;;;;17.17;15.52;;;14.10;75.70;;;;;;4997796;28;20038;-84
2021/10/18 13:50:08;;;;;;;170.43;152.68;;;14.10;75.50;;;;;;5014915;28;20034;-82
2021/10/18 13:52:35;;;;;;;32.15;29.00;;;14.10;75.50;;;;;;5000710;28;20477;-86